Time;durP1;ratioP1;P1;durP2;ratioP2;P2;SDS_P1;SDS_P2;PMS_P1;PMS_P2;Temp;Humidity;BMP_temperature;BMP_pressure;BME280_temperature;BME280_humidity;BME280_pressure;Samples;Min_cycle;Max_cycle;Signal;HPM_P1;HPM_P2
2022/03/05 00:01:16;;;;;;;;;16.00;13.75;;;;;;;;4997632;28;11449;-81
2022/03/05 00:03:43;;;;;;;;;18.50;14.75;;;;;;;;4994517;28;11536;-81
2022/03/05 00:06:11;;;;;;;;;18.25;14.25;;;;;;;;4990951;28;11510;-81
2022/03/05 00:08:38;;;;;;;;;14.00;11.00;;;;;;;;4998956;28;11535;-81
2022/03/05 00:11:05;;;;;;;;;15.00;9.25;;;;;;;;4980518;28;11506;-81
2022/03/05 00:13:35;;;;;;;;;16.00;14.50;;;;;;;;4998534;28;11575;-81
2022/03/05 00:16:03;;;;;;;;;9.75;7.00;;;;;;;;4997026;28;11687;-80
2022/03/05 00:18:30;;;;;;;;;17.50;15.00;;;;;;;;4992275;28;11939;-81
2022/03/05 00:20:58;;;;;;;;;16.50;12.50;;;;;;;;4999960;28;11572;-80
2022/03/05 00:23:25;;;;;;;;;15.00;13.00;;;;;;;;5000277;28;11844;-80
2022/03/05 00:25:53;;;;;;;;;15.75;13.50;;;;;;;;4993078;28;11523;-81
2022/03/05 00:28:20;;;;;;;;;12.75;10.00;;;;;;;;4994754;28;11582;-81
2022/03/05 00:30:49;;;;;;;;;18.00;14.00;;;;;;;;4998502;28;11459;-81
2022/03/05 00:33:19;;;;;;;;;24.50;20.00;;;;;;;;4997985;28;11513;-81
2022/03/05 00:35:47;;;;;;;;;17.00;14.50;;;;;;;;4990836;28;11598;-81
2022/03/05 00:38:14;;;;;;;;;16.00;13.75;;;;;;;;4982565;28;11530;-81
2022/03/05 00:40:41;;;;;;;;;13.00;13.00;;;;;;;;4997349;28;11518;-82
2022/03/05 00:43:09;;;;;;;;;12.75;12.75;;;;;;;;4993740;28;12327;-82
2022/03/05 00:45:37;;;;;;;;;15.50;15.50;;;;;;;;4991469;28;11668;-82
2022/03/05 00:48:07;;;;;;;;;12.50;8.50;;;;;;;;4997432;28;11619;-81
2022/03/05 00:50:34;;;;;;;;;18.00;16.00;;;;;;;;4998877;28;11479;-81
2022/03/05 00:53:01;;;;;;;;;20.50;16.50;;;;;;;;4989776;28;11525;-82
2022/03/05 00:55:29;;;;;;;;;15.75;15.50;;;;;;;;5000274;28;12335;-81
2022/03/05 00:57:56;;;;;;;;;14.00;13.50;;;;;;;;4999459;28;11516;-81
2022/03/05 01:00:23;;;;;;;;;22.25;17.25;;;;;;;;4997693;28;11556;-80
2022/03/05 01:02:51;;;;;;;;;18.00;18.00;;;;;;;;4982673;28;11505;-82
2022/03/05 01:05:20;;;;;;;;;14.00;14.00;;;;;;;;4991834;28;11516;-81
2022/03/05 01:07:47;;;;;;;;;17.25;17.00;;;;;;;;4993163;28;11584;-82
2022/03/05 01:10:15;;;;;;;;;13.00;12.25;;;;;;;;4991149;28;11500;-82
2022/03/05 01:12:42;;;;;;;;;18.50;16.25;;;;;;;;4995226;28;11528;-81
2022/03/05 01:15:10;;;;;;;;;19.50;17.00;;;;;;;;4977737;28;11527;-81
2022/03/05 01:17:38;;;;;;;;;13.75;12.00;;;;;;;;5000497;28;11556;-80
2022/03/05 01:20:06;;;;;;;;;13.50;13.00;;;;;;;;4995577;28;12278;-81
2022/03/05 01:22:35;;;;;;;;;16.50;15.00;;;;;;;;4989770;28;11516;-80
2022/03/05 01:25:03;;;;;;;;;13.00;12.25;;;;;;;;4994098;28;11614;-81
2022/03/05 01:27:30;;;;;;;;;10.50;9.00;;;;;;;;4994582;28;11491;-81
2022/03/05 01:29:58;;;;;;;;;13.50;13.50;;;;;;;;5000350;28;11553;-81
2022/03/05 01:32:25;;;;;;;;;23.75;23.00;;;;;;;;4993108;28;11453;-81
2022/03/05 01:34:52;;;;;;;;;20.75;16.75;;;;;;;;5000542;28;11648;-80
2022/03/05 01:37:20;;;;;;;;;29.67;19.00;;;;;;;;5002565;28;11540;-80
2022/03/05 01:39:48;;;;;;;;;20.00;20.00;;;;;;;;4999541;28;11534;-82
2022/03/05 01:42:19;;;;;;;;;28.00;24.00;;;;;;;;4994949;28;12359;-80
2022/03/05 01:44:46;;;;;;;;;22.33;19.67;;;;;;;;4999837;28;12268;-81
2022/03/05 01:47:14;;;;;;;;;37.67;30.00;;;;;;;;4995968;28;11544;-81
2022/03/05 01:49:41;;;;;;;;;36.67;30.67;;;;;;;;4995100;28;12284;-81
2022/03/05 01:52:09;;;;;;;;;24.33;22.33;;;;;;;;4995981;28;11564;-81
2022/03/05 01:54:36;;;;;;;;;31.33;25.00;;;;;;;;4993945;28;11540;-81
2022/03/05 01:57:05;;;;;;;;;19.33;18.33;;;;;;;;4998560;28;11698;-81
2022/03/05 01:59:34;;;;;;;;;26.67;24.00;;;;;;;;4971034;28;11574;-80
2022/03/05 02:02:01;;;;;;;;;24.00;20.33;;;;;;;;4977156;28;11716;-80
2022/03/05 02:04:29;;;;;;;;;25.67;20.67;;;;;;;;4998442;28;12475;-81
2022/03/05 02:06:59;;;;;;;;;28.67;24.00;;;;;;;;4998551;28;11641;-81
2022/03/05 02:09:27;;;;;;;;;24.67;22.67;;;;;;;;4992339;28;11541;-82
2022/03/05 02:11:54;;;;;;;;;31.00;27.67;;;;;;;;4997406;28;8854;-81
2022/03/05 02:14:23;;;;;;;;;31.00;26.67;;;;;;;;5001864;28;11562;-81
2022/03/05 02:16:51;;;;;;;;;30.33;25.67;;;;;;;;4995595;28;8858;-81
2022/03/05 02:19:19;;;;;;;;;34.67;33.33;;;;;;;;4988812;28;11600;-80
2022/03/05 02:21:48;;;;;;;;;36.00;31.67;;;;;;;;5002307;28;9981;-80
2022/03/05 02:24:31;;;;;;;;;29.33;24.67;;;;;;;;4990949;28;8890;-80
2022/03/05 02:26:58;;;;;;;;;25.33;23.67;;;;;;;;4991832;28;8852;-81
2022/03/05 02:29:26;;;;;;;;;34.33;30.00;;;;;;;;4995800;28;9016;-81
2022/03/05 02:31:54;;;;;;;;;33.33;26.67;;;;;;;;4981640;28;8821;-80
2022/03/05 02:34:21;;;;;;;;;35.33;30.33;;;;;;;;4999300;28;8874;-81
2022/03/05 02:36:50;;;;;;;;;35.33;33.00;;;;;;;;4999725;28;9649;-81
2022/03/05 02:39:18;;;;;;;;;32.00;29.00;;;;;;;;4989649;28;8954;-82
2022/03/05 02:41:46;;;;;;;;;36.67;29.67;;;;;;;;4997214;28;9014;-82
2022/03/05 02:44:14;;;;;;;;;32.00;28.33;;;;;;;;5001365;28;8979;-82
2022/03/05 02:46:41;;;;;;;;;36.00;35.33;;;;;;;;4991372;28;11638;-82
2022/03/05 02:49:09;;;;;;;;;35.33;33.00;;;;;;;;5001072;28;8890;-82
2022/03/05 02:51:36;;;;;;;;;42.33;37.00;;;;;;;;4987875;28;11655;-82
2022/03/05 02:54:05;;;;;;;;;39.33;36.00;;;;;;;;4996480;28;8872;-82
2022/03/05 02:56:33;;;;;;;;;48.33;41.67;;;;;;;;4979024;28;9005;-81
2022/03/05 02:59:00;;;;;;;;;48.00;39.33;;;;;;;;4978156;28;9306;-81
2022/03/05 03:01:28;;;;;;;;;35.67;28.67;;;;;;;;4999014;28;8982;-81
2022/03/05 03:03:55;;;;;;;;;41.33;37.33;;;;;;;;4997591;28;11696;-81
2022/03/05 03:06:22;;;;;;;;;43.33;40.33;;;;;;;;4982013;28;8852;-80
2022/03/05 03:08:50;;;;;;;;;37.33;32.33;;;;;;;;4973815;28;8848;-82
2022/03/05 03:11:18;;;;;;;;;34.67;26.67;;;;;;;;4987619;28;11693;-83
2022/03/05 03:13:46;;;;;;;;;35.33;35.33;;;;;;;;4989874;28;11574;-81
2022/03/05 03:16:13;;;;;;;;;30.00;24.00;;;;;;;;4991394;28;8899;-81
2022/03/05 03:18:41;;;;;;;;;41.67;35.00;;;;;;;;4994241;28;12411;-81
2022/03/05 03:21:08;;;;;;;;;44.00;35.67;;;;;;;;4995597;28;8919;-82
2022/03/05 03:23:35;;;;;;;;;47.00;39.67;;;;;;;;4992419;28;8872;-82
2022/03/05 03:26:03;;;;;;;;;34.67;28.67;;;;;;;;4993497;28;8892;-83
2022/03/05 03:28:32;;;;;;;;;42.33;38.33;;;;;;;;4998171;28;12308;-83
2022/03/05 03:31:00;;;;;;;;;37.33;30.67;;;;;;;;4994765;28;8797;-83
2022/03/05 03:33:27;;;;;;;;;27.67;25.33;;;;;;;;4998052;28;11619;-83
2022/03/05 03:35:55;;;;;;;;;33.00;26.33;;;;;;;;5002677;28;11529;-83
2022/03/05 03:38:23;;;;;;;;;25.33;23.67;;;;;;;;4993816;28;11545;-82
2022/03/05 03:40:50;;;;;;;;;33.00;28.67;;;;;;;;4977052;28;11566;-82
2022/03/05 03:43:18;;;;;;;;;25.75;25.00;;;;;;;;4986649;28;11628;-83
2022/03/05 03:45:47;;;;;;;;;28.67;28.67;;;;;;;;4993904;28;12729;-82
2022/03/05 03:48:14;;;;;;;;;43.00;33.67;;;;;;;;4994876;28;11519;-82
2022/03/05 03:50:41;;;;;;;;;36.33;33.67;;;;;;;;4991541;28;11666;-82
2022/03/05 03:53:09;;;;;;;;;46.67;43.67;;;;;;;;4997231;28;11607;-82
2022/03/05 03:55:36;;;;;;;;;44.67;39.33;;;;;;;;4976838;28;11553;-83
2022/03/05 03:58:05;;;;;;;;;46.33;43.33;;;;;;;;4993585;28;11577;-82
2022/03/05 04:00:32;;;;;;;;;50.33;42.67;;;;;;;;4990452;28;11498;-83
2022/03/05 04:03:02;;;;;;;;;36.33;33.67;;;;;;;;4994395;28;11574;-82
2022/03/05 04:05:30;;;;;;;;;46.33;41.00;;;;;;;;4998843;28;11573;-81
2022/03/05 04:10:42;;;;;;;;;45.67;41.67;;;;;;;;5000838;28;11522;-82
2022/03/05 04:13:09;;;;;;;;;46.50;41.25;;;;;;;;4994335;28;11545;-82
2022/03/05 04:15:37;;;;;;;;;43.75;36.75;;;;;;;;4988097;28;11693;-82
2022/03/05 04:18:06;;;;;;;;;41.50;37.00;;;;;;;;4974531;28;12387;-82
2022/03/05 04:20:33;;;;;;;;;42.00;35.50;;;;;;;;4993752;28;11564;-81
2022/03/05 04:23:00;;;;;;;;;37.50;35.50;;;;;;;;4999568;28;11532;-82
2022/03/05 04:25:28;;;;;;;;;55.25;44.00;;;;;;;;4989684;28;11546;-82
2022/03/05 04:27:55;;;;;;;;;37.25;35.00;;;;;;;;4999258;28;11566;-82
2022/03/05 04:30:22;;;;;;;;;45.75;43.00;;;;;;;;4993284;28;11547;-82
2022/03/05 04:32:50;;;;;;;;;55.33;46.67;;;;;;;;4997842;28;11659;-83
2022/03/05 04:35:18;;;;;;;;;45.00;38.50;;;;;;;;4994481;28;12435;-82
2022/03/05 04:37:46;;;;;;;;;51.75;39.25;;;;;;;;4992923;28;11552;-85
2022/03/05 04:40:15;;;;;;;;;41.50;36.50;;;;;;;;4995096;28;11524;-84
2022/03/05 04:42:42;;;;;;;;;42.50;41.25;;;;;;;;5001397;28;11693;-83
2022/03/05 04:45:10;;;;;;;;;50.00;43.00;;;;;;;;4993510;28;11545;-83
2022/03/05 04:47:40;;;;;;;;;46.50;37.00;;;;;;;;4993322;28;11662;-83
2022/03/05 04:50:09;;;;;;;;;37.75;37.25;;;;;;;;4987792;28;11643;-83
2022/03/05 04:52:38;;;;;;;;;47.50;40.75;;;;;;;;4997915;28;11641;-82
2022/03/05 04:55:07;;;;;;;;;53.00;45.00;;;;;;;;4995236;28;11566;-81
2022/03/05 04:57:35;;;;;;;;;46.75;40.75;;;;;;;;4996761;28;11496;-82
2022/03/05 05:00:02;;;;;;;;;45.00;42.00;;;;;;;;4991288;28;11565;-82
2022/03/05 05:02:30;;;;;;;;;41.50;37.25;;;;;;;;5001302;28;11493;-83
2022/03/05 05:04:57;;;;;;;;;55.67;44.67;;;;;;;;4998142;28;11541;-85
2022/03/05 05:07:24;;;;;;;;;47.50;41.25;;;;;;;;4985379;28;11532;-86
2022/03/05 05:09:53;;;;;;;;;50.00;40.00;;;;;;;;4996629;28;11547;-86
2022/03/05 05:12:21;;;;;;;;;40.75;38.75;;;;;;;;5002323;28;11537;-84
2022/03/05 05:14:48;;;;;;;;;49.33;41.67;;;;;;;;4983036;28;11643;-85
2022/03/05 05:17:16;;;;;;;;;57.00;42.67;;;;;;;;5000370;28;11546;-82
2022/03/05 05:19:43;;;;;;;;;50.00;40.33;;;;;;;;4993209;28;11546;-81
2022/03/05 05:22:11;;;;;;;;;45.67;38.67;;;;;;;;4997565;28;11709;-90
2022/03/05 05:24:39;;;;;;;;;51.00;42.33;;;;;;;;5004515;28;11531;-86
2022/03/05 05:27:08;;;;;;;;;45.67;40.00;;;;;;;;4988281;28;11650;-86
2022/03/05 05:29:35;;;;;;;;;41.00;31.67;;;;;;;;5000673;28;12515;-86
2022/03/05 05:32:02;;;;;;;;;46.67;40.67;;;;;;;;4974294;28;11621;-87
2022/03/05 05:34:30;;;;;;;;;41.67;37.67;;;;;;;;4980530;28;11574;-86
2022/03/05 05:36:57;;;;;;;;;40.00;37.00;;;;;;;;5005395;28;11564;-80
2022/03/05 05:39:24;;;;;;;;;39.33;38.33;;;;;;;;4993879;28;11564;-86
2022/03/05 05:41:52;;;;;;;;;45.00;39.67;;;;;;;;4993546;28;11659;-83
2022/03/05 05:44:20;;;;;;;;;44.00;39.00;;;;;;;;4994229;28;11540;-79
2022/03/05 05:46:48;;;;;;;;;44.00;39.67;;;;;;;;4999489;28;11711;-80
2022/03/05 05:49:16;;;;;;;;;37.33;33.00;;;;;;;;4998913;28;11573;-84
2022/03/05 05:51:43;;;;;;;;;45.00;41.67;;;;;;;;5005923;28;11540;-84
2022/03/05 05:54:10;;;;;;;;;51.33;44.00;;;;;;;;4999608;28;8864;-83
2022/03/05 05:56:37;;;;;;;;;41.67;37.00;;;;;;;;4999890;28;11554;-80
2022/03/05 05:59:05;;;;;;;;;48.33;43.00;;;;;;;;5003440;28;8901;-84
2022/03/05 06:01:34;;;;;;;;;45.67;40.67;;;;;;;;4986858;28;11516;-83
2022/03/05 06:04:02;;;;;;;;;46.67;41.67;;;;;;;;5002967;28;8973;-77
2022/03/05 06:06:30;;;;;;;;;47.33;41.00;;;;;;;;5002365;28;8890;-84
2022/03/05 06:08:57;;;;;;;;;37.67;31.67;;;;;;;;5005394;28;8979;-85
2022/03/05 06:11:24;;;;;;;;;40.33;34.67;;;;;;;;5006060;28;11546;-83
2022/03/05 06:13:52;;;;;;;;;42.00;40.00;;;;;;;;5006281;28;11625;-82
2022/03/05 06:16:20;;;;;;;;;52.67;46.00;;;;;;;;5003921;28;8868;-81
2022/03/05 06:18:48;;;;;;;;;46.67;42.33;;;;;;;;5004039;28;8982;-83
2022/03/05 06:21:16;;;;;;;;;60.67;44.00;;;;;;;;5002450;28;8876;-82
2022/03/05 06:23:44;;;;;;;;;51.67;44.00;;;;;;;;5001917;28;8880;-82
2022/03/05 06:26:11;;;;;;;;;41.67;35.00;;;;;;;;5003697;28;8876;-81
2022/03/05 06:28:38;;;;;;;;;45.67;41.67;;;;;;;;5005373;28;8985;-79
2022/03/05 06:31:06;;;;;;;;;54.67;45.00;;;;;;;;5010727;28;8864;-77
2022/03/05 06:33:33;;;;;;;;;47.33;40.67;;;;;;;;5009153;28;8884;-82
2022/03/05 06:36:02;;;;;;;;;53.67;45.33;;;;;;;;5007394;28;8980;-81
2022/03/05 06:38:29;;;;;;;;;50.33;43.00;;;;;;;;5006772;28;8889;-81
2022/03/05 06:40:57;;;;;;;;;43.67;42.67;;;;;;;;5001164;28;8914;-80
2022/03/05 06:43:24;;;;;;;;;51.00;43.33;;;;;;;;5005242;28;8860;-82
2022/03/05 06:45:51;;;;;;;;;61.67;47.67;;;;;;;;4965774;28;8880;-84
2022/03/05 06:48:19;;;;;;;;;44.33;40.33;;;;;;;;5004388;28;8892;-81
2022/03/05 06:50:46;;;;;;;;;30.33;30.33;;;;;;;;5005135;28;8890;-84
2022/03/05 06:53:15;;;;;;;;;44.67;43.33;;;;;;;;5003500;28;8872;-83
2022/03/05 06:55:42;;;;;;;;;60.67;48.33;;;;;;;;5002933;28;8858;-81
2022/03/05 06:58:09;;;;;;;;;67.00;52.67;;;;;;;;5000984;28;8862;-81
2022/03/05 07:00:37;;;;;;;;;62.33;51.33;;;;;;;;5002481;28;8832;-80
2022/03/05 07:03:05;;;;;;;;;54.00;43.67;;;;;;;;4997817;28;8862;-81
2022/03/05 07:05:32;;;;;;;;;42.00;39.00;;;;;;;;5000601;28;8932;-84
2022/03/05 07:07:59;;;;;;;;;59.67;44.00;;;;;;;;4990822;28;8851;-79
2022/03/05 07:10:28;;;;;;;;;48.67;40.00;;;;;;;;4990553;28;8870;-83
2022/03/05 07:12:55;;;;;;;;;66.33;48.00;;;;;;;;4997499;28;8867;-85
2022/03/05 07:15:23;;;;;;;;;58.00;47.67;;;;;;;;5001572;28;8840;-85
2022/03/05 07:17:51;;;;;;;;;67.33;54.67;;;;;;;;4998194;28;8902;-86
2022/03/05 07:20:19;;;;;;;;;57.67;47.33;;;;;;;;4994859;28;8940;-93
2022/03/05 07:22:47;;;;;;;;;45.33;38.33;;;;;;;;4996421;28;8873;-92
2022/03/05 07:25:15;;;;;;;;;39.33;32.33;;;;;;;;4990575;28;9008;-82
2022/03/05 07:27:44;;;;;;;;;35.67;33.33;;;;;;;;5000148;28;8878;-85
2022/03/05 07:30:12;;;;;;;;;35.67;32.67;;;;;;;;4991768;28;8909;-75
2022/03/05 07:32:40;;;;;;;;;58.33;47.33;;;;;;;;4998340;28;8890;-80
2022/03/05 07:35:09;;;;;;;;;45.33;39.33;;;;;;;;5002448;28;8945;-81
2022/03/05 07:37:36;;;;;;;;;43.67;36.33;;;;;;;;4996828;28;8874;-78
2022/03/05 07:40:05;;;;;;;;;38.00;31.00;;;;;;;;4998114;28;8924;-79
2022/03/05 07:42:32;;;;;;;;;32.67;32.67;;;;;;;;4998601;28;11531;-81
2022/03/05 07:45:01;;;;;;;;;34.67;29.67;;;;;;;;5000594;28;8864;-81
2022/03/05 07:47:28;;;;;;;;;38.33;36.00;;;;;;;;5000600;28;11501;-82
2022/03/05 07:49:56;;;;;;;;;24.67;21.00;;;;;;;;4998601;28;8898;-76
2022/03/05 07:52:23;;;;;;;;;27.33;21.67;;;;;;;;4997584;28;11519;-75
2022/03/05 07:54:50;;;;;;;;;35.00;28.00;;;;;;;;4994610;28;11684;-73
2022/03/05 07:57:18;;;;;;;;;35.67;28.67;;;;;;;;4994465;28;8863;-72
2022/03/05 07:59:45;;;;;;;;;41.33;36.00;;;;;;;;4993636;28;11523;-74
2022/03/05 08:02:15;;;;;;;;;35.00;30.00;;;;;;;;4996486;28;8839;-73
2022/03/05 08:04:44;;;;;;;;;50.67;37.00;;;;;;;;4997234;28;8920;-74
2022/03/05 08:07:12;;;;;;;;;37.33;34.33;;;;;;;;4995544;28;8876;-74
2022/03/05 08:09:40;;;;;;;;;48.67;39.67;;;;;;;;4999158;28;8844;-75
2022/03/05 08:12:08;;;;;;;;;33.33;33.33;;;;;;;;4960027;28;8848;-75
2022/03/05 08:14:37;;;;;;;;;51.67;37.00;;;;;;;;4998805;28;8864;-74
2022/03/05 08:17:05;;;;;;;;;46.00;40.67;;;;;;;;4960755;28;8870;-72
2022/03/05 08:19:34;;;;;;;;;39.33;38.00;;;;;;;;4998218;28;8872;-75
2022/03/05 08:22:01;;;;;;;;;46.67;40.67;;;;;;;;4993904;28;9597;-74
2022/03/05 08:24:29;;;;;;;;;45.33;40.00;;;;;;;;5001908;28;8890;-74
2022/03/05 08:26:56;;;;;;;;;37.67;37.67;;;;;;;;4998123;28;8848;-74
2022/03/05 08:29:24;;;;;;;;;44.00;39.33;;;;;;;;5004495;28;8856;-74
2022/03/05 08:31:54;;;;;;;;;43.00;39.00;;;;;;;;5005036;28;11503;-75
2022/03/05 08:34:22;;;;;;;;;55.67;48.00;;;;;;;;4986976;28;8864;-74
2022/03/05 08:36:50;;;;;;;;;46.00;42.67;;;;;;;;5004943;28;9696;-75
2022/03/05 08:39:18;;;;;;;;;60.00;44.33;;;;;;;;5004023;28;8868;-75
2022/03/05 08:41:46;;;;;;;;;39.00;31.00;;;;;;;;5002044;28;8930;-74
2022/03/05 08:44:14;;;;;;;;;57.67;40.67;;;;;;;;4998245;28;11546;-74
2022/03/05 08:46:42;;;;;;;;;46.67;41.00;;;;;;;;5000968;28;11568;-74
2022/03/05 08:49:09;;;;;;;;;44.67;41.67;;;;;;;;4987446;28;11659;-74
2022/03/05 08:51:38;;;;;;;;;50.33;41.00;;;;;;;;5003250;28;12372;-74
2022/03/05 08:54:07;;;;;;;;;50.33;42.00;;;;;;;;4994518;28;8902;-74
2022/03/05 08:56:34;;;;;;;;;64.67;54.33;;;;;;;;5000336;28;8878;-74
2022/03/05 08:59:01;;;;;;;;;53.00;41.00;;;;;;;;4996025;28;8887;-74
2022/03/05 09:01:29;;;;;;;;;49.33;40.33;;;;;;;;5003431;28;11493;-75
2022/03/05 09:03:58;;;;;;;;;56.00;46.67;;;;;;;;5004432;28;11544;-75
2022/03/05 09:06:25;;;;;;;;;45.75;42.50;;;;;;;;4996016;28;11625;-75
2022/03/05 09:08:53;;;;;;;;;51.67;47.00;;;;;;;;4998322;28;11526;-74
2022/03/05 09:11:22;;;;;;;;;49.00;41.00;;;;;;;;5004064;28;11548;-74
2022/03/05 09:13:49;;;;;;;;;48.33;42.67;;;;;;;;4998893;28;11568;-73
2022/03/05 09:16:16;;;;;;;;;54.00;45.00;;;;;;;;5002350;28;11563;-74
2022/03/05 09:18:44;;;;;;;;;48.75;44.25;;;;;;;;5000245;28;11557;-73
2022/03/05 09:21:11;;;;;;;;;52.00;42.75;;;;;;;;4999527;28;11564;-74
2022/03/05 09:23:39;;;;;;;;;48.25;42.50;;;;;;;;5003718;28;11572;-75
2022/03/05 09:26:06;;;;;;;;;50.00;41.75;;;;;;;;4985423;28;11573;-76
2022/03/05 09:28:36;;;;;;;;;56.25;45.75;;;;;;;;4989878;28;11545;-75
2022/03/05 09:31:04;;;;;;;;;55.25;44.50;;;;;;;;5002157;28;11501;-75
2022/03/05 09:33:31;;;;;;;;;48.50;40.50;;;;;;;;5003493;28;11533;-75
2022/03/05 09:35:59;;;;;;;;;55.00;45.25;;;;;;;;5000684;28;12401;-75
2022/03/05 09:38:27;;;;;;;;;60.75;45.00;;;;;;;;5001182;28;11620;-75
2022/03/05 09:40:54;;;;;;;;;60.75;48.25;;;;;;;;4968445;28;11555;-75
2022/03/05 09:43:22;;;;;;;;;58.00;43.25;;;;;;;;4999536;28;11642;-76
2022/03/05 09:45:51;;;;;;;;;54.00;44.75;;;;;;;;4988745;28;11571;-76
2022/03/05 09:48:19;;;;;;;;;61.50;49.25;;;;;;;;5001028;28;11570;-77
2022/03/05 09:50:47;;;;;;;;;73.00;57.67;;;;;;;;5000682;28;11653;-77
2022/03/05 09:53:16;;;;;;;;;70.67;56.67;;;;;;;;5002023;28;8868;-75
2022/03/05 09:55:43;;;;;;;;;62.50;51.00;;;;;;;;4997396;28;8917;-81
2022/03/05 09:58:11;;;;;;;;;53.00;46.00;;;;;;;;4993193;28;12351;-73
2022/03/05 10:00:40;;;;;;;;;62.25;49.25;;;;;;;;4999401;28;11473;-76
2022/03/05 10:03:13;;;;;;;;;59.25;48.00;;;;;;;;4995952;28;11542;-75
2022/03/05 10:05:41;;;;;;;;;64.50;50.25;;;;;;;;4990427;28;11560;-73
2022/03/05 10:08:10;;;;;;;;;48.75;42.00;;;;;;;;4997386;28;11583;-73
2022/03/05 10:10:42;;;;;;;;;38.50;31.75;;;;;;;;4997966;28;11604;-78
2022/03/05 10:13:24;;;;;;;;;43.75;38.00;;;;;;;;4997031;28;11663;-78
2022/03/05 10:15:53;;;;;;;;;59.50;47.75;;;;;;;;4997404;28;11582;-77
2022/03/05 10:18:29;;;;;;;;;60.00;48.75;;;;;;;;4979467;28;11670;-79
2022/03/05 10:20:57;;;;;;;;;62.00;43.25;;;;;;;;4991109;28;12342;-77
2022/03/05 10:23:25;;;;;;;;;52.75;44.25;;;;;;;;4995005;28;12292;-75
2022/03/05 10:25:54;;;;;;;;;53.50;39.25;;;;;;;;5000606;28;11523;-76
2022/03/05 10:28:23;;;;;;;;;45.00;41.25;;;;;;;;5001812;28;11585;-78
2022/03/05 10:30:52;;;;;;;;;53.25;42.75;;;;;;;;5001229;28;11505;-77
2022/03/05 10:33:30;;;;;;;;;51.00;44.75;;;;;;;;5001108;28;11521;-78
2022/03/05 10:35:58;;;;;;;;;52.50;45.00;;;;;;;;4990815;28;12442;-77
2022/03/05 10:38:46;;;;;;;;;56.25;47.75;;;;;;;;5000355;28;11612;-76
2022/03/05 10:41:17;;;;;;;;;52.50;43.50;;;;;;;;4981984;28;11683;-77
2022/03/05 10:43:44;;;;;;;;;51.25;40.50;;;;;;;;4998321;28;11586;-77
2022/03/05 10:46:12;;;;;;;;;60.25;50.50;;;;;;;;5001178;28;11602;-77
2022/03/05 10:48:42;;;;;;;;;61.25;47.25;;;;;;;;4982508;28;11542;-75
2022/03/05 10:51:13;;;;;;;;;62.50;50.50;;;;;;;;4982999;28;11547;-75
2022/03/05 10:53:43;;;;;;;;;42.00;38.50;;;;;;;;4995292;28;11575;-77
2022/03/05 10:56:33;;;;;;;;;42.50;38.00;;;;;;;;4977577;28;11491;-75
2022/03/05 10:59:09;;;;;;;;;64.75;50.75;;;;;;;;4992383;28;11535;-76
2022/03/05 11:01:40;;;;;;;;;50.50;44.50;;;;;;;;4990546;28;11451;-74
2022/03/05 11:04:09;;;;;;;;;46.25;39.50;;;;;;;;4994675;28;11489;-76
2022/03/05 11:06:38;;;;;;;;;47.25;40.25;;;;;;;;4987449;28;11485;-76
2022/03/05 11:09:06;;;;;;;;;44.25;40.00;;;;;;;;4998071;28;11448;-77
2022/03/05 11:11:37;;;;;;;;;54.25;42.75;;;;;;;;4988714;28;11606;-77
2022/03/05 11:14:05;;;;;;;;;41.00;38.75;;;;;;;;4974680;28;11515;-78
2022/03/05 11:16:34;;;;;;;;;45.00;38.25;;;;;;;;4990916;28;10968;-78
2022/03/05 11:19:03;;;;;;;;;43.00;38.00;;;;;;;;5000411;28;11727;-77
2022/03/05 11:21:32;;;;;;;;;50.50;42.00;;;;;;;;4998075;28;10920;-76
2022/03/05 11:24:00;;;;;;;;;52.25;42.75;;;;;;;;4993471;28;11037;-76
2022/03/05 11:26:30;;;;;;;;;33.25;30.50;;;;;;;;5000798;28;11699;-79
2022/03/05 11:28:57;;;;;;;;;45.75;40.25;;;;;;;;4971792;28;10811;-76
2022/03/05 11:31:26;;;;;;;;;57.00;46.25;;;;;;;;4991270;28;10773;-77
2022/03/05 11:33:53;;;;;;;;;52.50;44.50;;;;;;;;4992124;28;10934;-77
2022/03/05 11:36:31;;;;;;;;;46.00;40.75;;;;;;;;5004060;28;10966;-76
2022/03/05 11:39:17;;;;;;;;;45.75;40.00;;;;;;;;4997070;28;10844;-76
2022/03/05 11:42:01;;;;;;;;;54.00;44.25;;;;;;;;4996738;28;10904;-79
2022/03/05 11:44:30;;;;;;;;;47.25;38.00;;;;;;;;4996487;28;10764;-80
2022/03/05 11:47:23;;;;;;;;;46.25;39.75;;;;;;;;4999799;28;10643;-76
2022/03/05 11:50:11;;;;;;;;;47.00;39.75;;;;;;;;4988814;28;10496;-75
2022/03/05 11:53:15;;;;;;;;;46.75;40.00;;;;;;;;4999703;28;10592;-74
2022/03/05 11:55:45;;;;;;;;;45.50;40.75;;;;;;;;4993776;28;10275;-79
2022/03/05 11:58:36;;;;;;;;;56.50;46.00;;;;;;;;5000064;28;10456;-75
2022/03/05 12:01:35;;;;;;;;;52.25;41.00;;;;;;;;4983561;28;10528;-81
2022/03/05 12:04:18;;;;;;;;;44.00;38.50;;;;;;;;4936999;28;10389;-77
2022/03/05 12:06:47;;;;;;;;;51.75;41.50;;;;;;;;4971712;28;10272;-76
2022/03/05 12:09:39;;;;;;;;;48.00;40.50;;;;;;;;4979648;28;10374;-78
2022/03/05 12:12:10;;;;;;;;;56.00;46.00;;;;;;;;4994612;28;10305;-81
2022/03/05 12:15:12;;;;;;;;;49.25;40.50;;;;;;;;4993373;28;10362;-80
2022/03/05 12:17:46;;;;;;;;;48.50;42.50;;;;;;;;4998287;28;10239;-79
2022/03/05 12:20:15;;;;;;;;;59.25;49.00;;;;;;;;4997500;28;10126;-76
2022/03/05 12:22:57;;;;;;;;;52.25;43.00;;;;;;;;5002241;28;10961;-75
2022/03/05 12:25:25;;;;;;;;;54.75;45.50;;;;;;;;4998852;28;10260;-76
2022/03/05 12:27:55;;;;;;;;;56.25;46.25;;;;;;;;4997099;28;10252;-79
2022/03/05 12:30:24;;;;;;;;;51.50;41.75;;;;;;;;4991459;28;10140;-77
2022/03/05 12:32:52;;;;;;;;;50.00;38.75;;;;;;;;4996579;28;9983;-79
2022/03/05 12:35:21;;;;;;;;;46.00;38.50;;;;;;;;4998121;28;9651;-78
2022/03/05 12:37:49;;;;;;;;;52.75;43.50;;;;;;;;4999001;28;11286;-80
2022/03/05 12:40:17;;;;;;;;;55.00;45.50;;;;;;;;4994951;28;9699;-79
2022/03/05 12:42:46;;;;;;;;;50.50;41.75;;;;;;;;4988848;28;9739;-79
2022/03/05 12:45:20;;;;;;;;;40.33;36.67;;;;;;;;4986865;28;9508;-79
2022/03/05 12:47:48;;;;;;;;;46.67;39.67;;;;;;;;4986781;28;9293;-80
2022/03/05 12:50:36;;;;;;;;;55.67;44.00;;;;;;;;4996719;28;9328;-79
2022/03/05 12:53:06;;;;;;;;;51.00;44.00;;;;;;;;4994232;28;9330;-79
2022/03/05 12:55:36;;;;;;;;;51.33;42.67;;;;;;;;4988247;28;9187;-80
2022/03/05 12:58:10;;;;;;;;;49.00;40.00;;;;;;;;5000349;28;9334;-77
2022/03/05 13:00:40;;;;;;;;;50.00;42.00;;;;;;;;4995177;28;10027;-79
2022/03/05 13:03:09;;;;;;;;;49.67;41.67;;;;;;;;4989519;28;9215;-79
2022/03/05 13:05:37;;;;;;;;;52.67;43.33;;;;;;;;4997964;28;9252;-78
2022/03/05 13:08:05;;;;;;;;;54.00;43.00;;;;;;;;4975317;28;9328;-79
2022/03/05 13:10:33;;;;;;;;;55.00;43.33;;;;;;;;4980314;28;9162;-76
2022/03/05 13:13:00;;;;;;;;;50.33;41.67;;;;;;;;4995792;28;9210;-79
2022/03/05 13:15:30;;;;;;;;;49.67;39.33;;;;;;;;4987421;28;9662;-78
2022/03/05 13:18:10;;;;;;;;;55.00;42.67;;;;;;;;4998424;28;9754;-79
2022/03/05 13:20:38;;;;;;;;;43.00;37.75;;;;;;;;5003193;28;9071;-78
2022/03/05 13:23:06;;;;;;;;;46.33;39.00;;;;;;;;5010453;28;8910;-79
2022/03/05 13:25:40;;;;;;;;;49.67;40.33;;;;;;;;4997027;28;9035;-78
2022/03/05 13:28:08;;;;;;;;;48.00;40.00;;;;;;;;4997148;28;9143;-77
2022/03/05 13:30:36;;;;;;;;;40.67;35.67;;;;;;;;5003349;28;9048;-78
2022/03/05 13:33:04;;;;;;;;;56.67;45.00;;;;;;;;5000656;28;8968;-80
2022/03/05 13:35:42;;;;;;;;;45.00;38.75;;;;;;;;5001075;28;9126;-81
2022/03/05 13:38:26;;;;;;;;;50.50;41.75;;;;;;;;5004432;28;8884;-81
2022/03/05 13:40:53;;;;;;;;;53.75;43.75;;;;;;;;5002592;28;8891;-79
2022/03/05 13:43:24;;;;;;;;;44.25;36.00;;;;;;;;4997345;28;8990;-80
2022/03/05 13:45:54;;;;;;;;;46.00;38.50;;;;;;;;5004345;28;8891;-80
2022/03/05 13:48:22;;;;;;;;;49.25;42.00;;;;;;;;4981987;28;8891;-82
2022/03/05 13:50:50;;;;;;;;;45.00;38.75;;;;;;;;4999674;28;8882;-80
2022/03/05 13:53:17;;;;;;;;;46.50;39.00;;;;;;;;5001254;28;10026;-79
2022/03/05 13:55:45;;;;;;;;;43.25;38.00;;;;;;;;4999049;28;8866;-78
2022/03/05 13:58:22;;;;;;;;;46.75;39.00;;;;;;;;4997321;28;8987;-78
2022/03/05 14:00:50;;;;;;;;;47.25;37.25;;;;;;;;4992061;28;8838;-81
2022/03/05 14:03:18;;;;;;;;;48.75;39.75;;;;;;;;4992603;28;9606;-81
2022/03/05 14:05:45;;;;;;;;;47.50;41.00;;;;;;;;4998762;28;8969;-81
2022/03/05 14:08:28;;;;;;;;;52.25;41.75;;;;;;;;5003230;28;9700;-78
2022/03/05 14:10:56;;;;;;;;;47.50;38.50;;;;;;;;4986064;28;8872;-78
2022/03/05 14:13:26;;;;;;;;;52.00;42.25;;;;;;;;5001963;28;8864;-79
2022/03/05 14:15:55;;;;;;;;;47.00;39.50;;;;;;;;4990609;28;8872;-82
2022/03/05 14:18:23;;;;;;;;;51.00;39.67;;;;;;;;5003576;28;8887;-80
2022/03/05 14:20:51;;;;;;;;;46.25;39.50;;;;;;;;4989628;28;8964;-84
2022/03/05 14:23:21;;;;;;;;;46.33;39.00;;;;;;;;4999443;28;8903;-81
2022/03/05 14:25:50;;;;;;;;;43.25;37.75;;;;;;;;4999888;28;8966;-82
2022/03/05 14:28:20;;;;;;;;;40.25;36.75;;;;;;;;5000103;28;8848;-81
2022/03/05 14:30:49;;;;;;;;;49.33;42.00;;;;;;;;5000252;28;8809;-81
2022/03/05 14:33:17;;;;;;;;;55.67;44.00;;;;;;;;5000384;28;9944;-80
2022/03/05 14:35:44;;;;;;;;;42.00;37.67;;;;;;;;4997055;28;9102;-80